Time;durP1;ratioP1;P1;durP2;ratioP2;P2;SDS_P1;SDS_P2;PMS_P1;PMS_P2;Temp;Humidity;BMP_temperature;BMP_pressure;BME280_temperature;BME280_humidity;BME280_pressure;Samples;Min_cycle;Max_cycle;Signal;HPM_P1;HPM_P2
2022/10/16 00:01:38;;;;;;;50.47;29.63;;;13.30;99.90;;;;;;5073651;28;20020;-65
2022/10/16 00:04:04;;;;;;;48.28;29.23;;;13.30;99.90;;;;;;5074240;28;20119;-66
2022/10/16 00:06:30;;;;;;;48.78;29.17;;;13.30;99.90;;;;;;5073347;28;20044;-67
2022/10/16 00:08:57;;;;;;;48.85;30.65;;;13.30;99.90;;;;;;5073912;28;20507;-67
2022/10/16 00:11:25;;;;;;;47.85;29.30;;;13.30;99.90;;;;;;5073187;28;20052;-67
2022/10/16 00:13:54;;;;;;;49.92;29.45;;;13.30;99.90;;;;;;5073049;28;20040;-67
2022/10/16 00:16:20;;;;;;;48.45;30.27;;;13.30;99.90;;;;;;5073390;28;20056;-65
2022/10/16 00:18:46;;;;;;;50.60;30.70;;;13.30;99.90;;;;;;5073485;28;20063;-66
2022/10/16 00:21:18;;;;;;;56.22;31.63;;;13.30;99.90;;;;;;5073962;28;20508;-66
2022/10/16 00:23:44;;;;;;;52.58;33.08;;;13.30;99.90;;;;;;5073768;28;20027;-66
2022/10/16 00:26:13;;;;;;;50.25;30.88;;;13.30;99.90;;;;;;5073223;28;20036;-66
2022/10/16 00:28:39;;;;;;;51.63;29.67;;;13.30;99.90;;;;;;5073136;28;20025;-66
2022/10/16 00:31:08;;;;;;;51.78;31.08;;;13.30;99.90;;;;;;5073482;28;20503;-66
2022/10/16 00:33:34;;;;;;;51.78;31.10;;;13.30;99.90;;;;;;5073069;28;20475;-66
2022/10/16 00:36:02;;;;;;;52.83;30.23;;;13.30;99.90;;;;;;5073384;28;20032;-67
2022/10/16 00:38:28;;;;;;;55.05;30.73;;;13.30;99.90;;;;;;5072962;28;20062;-67
2022/10/16 00:40:53;;;;;;;52.60;31.90;;;13.30;99.90;;;;;;5073302;28;20059;-67
2022/10/16 00:43:37;;;;;;;52.10;31.27;;;13.30;99.90;;;;;;5072674;28;20103;-67
2022/10/16 00:46:15;;;;;;;53.88;29.95;;;13.30;99.90;;;;;;5073159;28;20346;-66
2022/10/16 00:48:42;;;;;;;51.65;29.58;;;13.20;99.90;;;;;;5072920;28;20032;-67
2022/10/16 00:51:08;;;;;;;52.25;29.30;;;13.20;99.90;;;;;;5073150;28;20028;-66
2022/10/16 00:53:35;;;;;;;50.28;30.67;;;13.20;99.90;;;;;;5072770;28;20021;-67
2022/10/16 00:56:01;;;;;;;57.33;31.65;;;13.20;99.90;;;;;;5072791;28;20048;-66
2022/10/16 00:58:27;;;;;;;59.40;32.50;;;13.20;99.90;;;;;;5072710;28;20453;-65
2022/10/16 01:00:53;;;;;;;54.00;30.35;;;13.20;99.90;;;;;;5073076;28;20038;-66
2022/10/16 01:03:31;;;;;;;53.22;29.20;;;13.20;99.90;;;;;;5073064;28;20032;-66
2022/10/16 01:06:21;;;;;;;55.10;30.92;;;13.20;99.90;;;;;;5072838;28;20040;-66
2022/10/16 01:09:25;;;;;;;52.22;29.60;;;13.20;99.90;;;;;;5072691;28;20115;-66
2022/10/16 01:12:14;;;;;;;59.08;30.15;;;13.20;99.90;;;;;;5055150;28;20029;-66
2022/10/16 01:15:03;;;;;;;48.97;28.08;;;13.20;99.90;;;;;;5071615;28;20044;-66
2022/10/16 01:17:37;;;;;;;49.42;28.75;;;13.20;99.90;;;;;;5072263;28;20081;-66
2022/10/16 01:20:29;;;;;;;51.13;28.05;;;13.20;99.90;;;;;;5090177;28;20036;-67
2022/10/16 01:23:22;;;;;;;48.05;28.17;;;13.20;99.90;;;;;;5092644;28;20036;-65
2022/10/16 01:26:13;;;;;;;52.03;29.05;;;13.20;99.90;;;;;;5092809;28;20074;-67
2022/10/16 01:29:03;;;;;;;60.75;31.75;;;13.20;99.90;;;;;;5092851;28;20103;-66
2022/10/16 01:31:35;;;;;;;59.95;30.23;;;13.20;99.90;;;;;;5092528;28;20051;-66
2022/10/16 01:34:05;;;;;;;64.30;32.13;;;13.20;99.90;;;;;;5092881;28;20405;-66
2022/10/16 01:36:49;;;;;;;57.63;31.08;;;13.20;99.90;;;;;;5092042;28;20036;-66
2022/10/16 01:39:18;;;;;;;56.67;29.63;;;13.20;99.90;;;;;;5092872;28;20082;-66
2022/10/16 01:41:58;;;;;;;55.00;29.13;;;13.20;99.90;;;;;;5092189;28;20017;-66
2022/10/16 01:44:29;;;;;;;62.60;31.02;;;13.20;99.90;;;;;;5092213;28;20020;-66
2022/10/16 01:46:55;;;;;;;61.88;31.50;;;13.20;99.90;;;;;;5092823;28;20177;-66
2022/10/16 01:49:25;;;;;;;59.97;32.90;;;13.20;99.90;;;;;;5083496;28;20024;-66
2022/10/16 01:51:54;;;;;;;55.75;33.05;;;13.20;99.90;;;;;;5072223;28;20469;-66
2022/10/16 01:54:22;;;;;;;53.08;30.88;;;13.20;99.90;;;;;;5072433;28;20017;-66
2022/10/16 01:56:50;;;;;;;67.88;33.65;;;13.20;99.90;;;;;;5072280;28;20045;-67
2022/10/16 01:59:19;;;;;;;63.97;33.85;;;13.20;99.90;;;;;;5054395;28;20028;-66
2022/10/16 02:01:50;;;;;;;60.80;33.05;;;13.20;99.90;;;;;;5071763;28;20024;-66
2022/10/16 02:04:25;;;;;;;;;;;13.20;99.90;;;;;;5072598;28;20098;-66
2022/10/16 02:06:52;;;;;;;54.13;31.17;;;13.20;99.90;;;;;;5072175;28;19939;-66
2022/10/16 02:09:18;;;;;;;58.42;33.53;;;13.20;99.90;;;;;;5071731;28;20021;-65
2022/10/16 02:11:44;;;;;;;56.75;32.58;;;13.20;99.90;;;;;;5071816;28;20031;-67
2022/10/16 02:14:10;;;;;;;59.28;32.35;;;13.20;99.90;;;;;;5072210;28;20029;-66
2022/10/16 02:16:39;;;;;;;54.70;31.92;;;13.20;99.90;;;;;;5071724;28;20033;-66
2022/10/16 02:19:06;;;;;;;56.15;31.67;;;13.20;99.90;;;;;;5072020;28;20528;-66
2022/10/16 02:21:46;;;;;;;51.20;31.13;;;13.20;99.90;;;;;;5071474;28;20369;-66
2022/10/16 02:24:36;;;;;;;58.63;32.47;;;13.20;99.90;;;;;;5072063;28;20035;-66
2022/10/16 02:27:17;;;;;;;53.17;30.90;;;13.20;99.90;;;;;;5071927;28;20032;-66
2022/10/16 02:29:50;;;;;;;49.03;30.00;;;13.20;99.90;;;;;;5071609;28;20031;-66
2022/10/16 02:32:19;;;;;;;55.70;29.95;;;13.20;99.90;;;;;;5071664;28;20044;-66
2022/10/16 02:34:48;;;;;;;52.67;29.45;;;13.20;99.90;;;;;;5071900;28;20354;-66
2022/10/16 02:37:14;;;;;;;48.92;29.02;;;13.20;99.90;;;;;;5074136;28;20060;-66
2022/10/16 02:39:41;;;;;;;48.00;28.98;;;13.20;99.90;;;;;;5075247;28;20426;-66
2022/10/16 02:42:13;;;;;;;51.13;28.30;;;13.10;99.90;;;;;;5075583;28;20036;-66
2022/10/16 02:44:40;;;;;;;45.30;28.38;;;13.10;99.90;;;;;;5075507;28;20058;-66
2022/10/16 02:47:06;;;;;;;48.67;27.92;;;13.10;99.90;;;;;;5075539;28;20036;-66
2022/10/16 02:49:31;;;;;;;47.08;28.58;;;13.10;99.90;;;;;;5074934;28;20025;-66
2022/10/16 02:51:57;;;;;;;47.33;28.48;;;13.10;99.90;;;;;;5057264;28;20059;-66
2022/10/16 02:54:23;;;;;;;45.45;27.73;;;13.10;99.90;;;;;;5075361;28;20031;-66
2022/10/16 02:56:49;;;;;;;40.17;26.30;;;13.10;99.90;;;;;;5075011;28;20053;-66
2022/10/16 02:59:15;;;;;;;41.67;25.92;;;13.00;99.90;;;;;;5075431;28;20498;-66
2022/10/16 03:01:40;;;;;;;43.60;27.10;;;13.00;99.90;;;;;;5074834;28;20024;-66
2022/10/16 03:04:06;;;;;;;46.92;27.45;;;12.90;99.90;;;;;;5075164;28;20028;-65
2022/10/16 03:06:31;;;;;;;43.67;26.02;;;12.90;99.90;;;;;;5074398;28;20064;-66
2022/10/16 03:08:57;;;;;;;39.65;24.52;;;12.90;99.90;;;;;;5074831;28;20024;-65
2022/10/16 03:11:23;;;;;;;39.58;24.52;;;12.90;99.90;;;;;;5074758;28;20066;-65
2022/10/16 03:13:48;;;;;;;38.72;25.20;;;12.90;99.90;;;;;;5074555;28;20376;-65
2022/10/16 03:16:14;;;;;;;38.88;25.25;;;12.80;99.90;;;;;;5074616;28;20104;-65
2022/10/16 03:18:39;;;;;;;39.42;24.13;;;12.80;99.90;;;;;;5074578;28;20116;-66
2022/10/16 03:21:05;;;;;;;35.83;22.48;;;12.80;99.90;;;;;;5074619;28;20130;-66
2022/10/16 03:23:31;;;;;;;36.53;23.50;;;12.80;99.90;;;;;;5088909;28;20020;-66
2022/10/16 03:25:56;;;;;;;39.45;24.45;;;12.80;99.90;;;;;;5094708;28;20494;-66
2022/10/16 03:28:22;;;;;;;43.10;25.40;;;12.80;99.90;;;;;;5094965;28;20080;-66
2022/10/16 03:30:48;;;;;;;42.65;25.58;;;12.80;99.90;;;;;;5094423;28;20059;-65
2022/10/16 03:33:13;;;;;;;38.45;24.13;;;12.70;99.90;;;;;;5076398;28;20047;-65
2022/10/16 03:35:39;;;;;;;38.60;24.98;;;12.80;99.90;;;;;;5094427;28;20054;-65
2022/10/16 03:38:04;;;;;;;44.20;26.05;;;12.70;99.90;;;;;;5094596;28;20028;-65
2022/10/16 03:40:32;;;;;;;42.08;25.50;;;12.70;99.90;;;;;;5094693;28;20028;-66
2022/10/16 03:42:57;;;;;;;41.70;24.92;;;12.70;99.90;;;;;;5094411;28;20353;-66
2022/10/16 03:45:24;;;;;;;37.20;23.15;;;12.70;99.90;;;;;;5085833;28;20025;-65
2022/10/16 03:47:49;;;;;;;42.65;23.95;;;12.60;99.90;;;;;;5072939;28;20047;-66
2022/10/16 03:50:15;;;;;;;36.05;23.95;;;12.60;99.90;;;;;;5074443;28;20396;-66
2022/10/16 03:52:41;;;;;;;34.65;24.42;;;12.60;99.90;;;;;;5073576;28;20377;-66
2022/10/16 03:55:07;;;;;;;35.38;22.60;;;12.60;99.90;;;;;;5073769;28;20074;-66
2022/10/16 03:57:33;;;;;;;41.58;24.92;;;12.60;99.90;;;;;;5073884;28;20033;-67
2022/10/16 03:59:58;;;;;;;37.35;24.23;;;12.60;99.90;;;;;;5074170;28;20027;-65
2022/10/16 04:02:24;;;;;;;39.08;25.13;;;12.50;99.90;;;;;;5074078;28;20108;-65
2022/10/16 04:04:50;;;;;;;34.20;23.70;;;12.50;99.90;;;;;;5073638;28;20028;-65
2022/10/16 04:07:15;;;;;;;33.95;22.45;;;12.50;99.90;;;;;;5073959;28;20090;-65
2022/10/16 04:09:41;;;;;;;36.78;23.10;;;12.40;99.90;;;;;;5073496;28;20024;-66
2022/10/16 04:12:07;;;;;;;35.97;23.20;;;12.40;99.90;;;;;;5073959;28;20441;-66
2022/10/16 04:14:33;;;;;;;38.83;23.10;;;12.50;99.90;;;;;;5073907;28;20032;-66
2022/10/16 04:16:59;;;;;;;31.20;20.55;;;12.50;99.90;;;;;;5073700;28;20071;-66
2022/10/16 04:19:25;;;;;;;29.02;19.80;;;12.40;99.90;;;;;;5073760;28;20051;-65
2022/10/16 04:21:51;;;;;;;29.63;18.83;;;12.40;99.90;;;;;;5073240;28;20039;-65
2022/10/16 04:24:17;;;;;;;30.17;19.88;;;12.40;99.90;;;;;;5073602;28;20029;-65
2022/10/16 04:26:43;;;;;;;27.13;18.10;;;12.40;99.90;;;;;;5073117;28;20039;-66
2022/10/16 04:29:08;;;;;;;31.80;18.73;;;12.40;99.90;;;;;;5073553;28;20104;-65
2022/10/16 04:31:34;;;;;;;25.65;17.13;;;12.30;99.90;;;;;;5073585;28;20445;-66
2022/10/16 04:33:59;;;;;;;27.15;18.27;;;12.40;99.90;;;;;;5073730;28;20075;-66
2022/10/16 04:36:25;;;;;;;27.55;18.83;;;12.30;99.90;;;;;;5073436;28;20039;-66
2022/10/16 04:38:51;;;;;;;29.55;18.05;;;12.30;99.90;;;;;;5072975;28;20028;-66
2022/10/16 04:41:16;;;;;;;25.02;17.40;;;12.30;99.90;;;;;;5073443;28;20036;-66
2022/10/16 04:43:42;;;;;;;24.90;16.73;;;12.20;99.90;;;;;;5072895;28;20086;-66
2022/10/16 04:46:07;;;;;;;24.83;17.48;;;12.20;99.90;;;;;;5072905;28;20031;-66
2022/10/16 04:48:33;;;;;;;27.00;17.13;;;12.20;99.90;;;;;;5073184;28;20021;-65
2022/10/16 04:50:59;;;;;;;24.83;16.63;;;12.20;99.90;;;;;;5072828;28;20376;-65
2022/10/16 04:53:25;;;;;;;25.55;17.23;;;12.10;99.90;;;;;;5072966;28;20031;-65
2022/10/16 04:55:50;;;;;;;23.77;16.73;;;12.10;99.90;;;;;;5072829;28;20045;-66
2022/10/16 04:58:17;;;;;;;25.67;17.48;;;12.10;99.90;;;;;;5073077;28;20123;-65
2022/10/16 05:00:44;;;;;;;24.77;15.85;;;12.10;99.90;;;;;;5072347;28;20377;-67
2022/10/16 05:03:09;;;;;;;25.77;17.38;;;12.10;99.90;;;;;;5073070;28;20021;-67
2022/10/16 05:05:35;;;;;;;25.35;16.38;;;12.00;99.90;;;;;;5073050;28;20354;-66
2022/10/16 05:08:02;;;;;;;24.75;16.40;;;12.00;99.90;;;;;;5072533;28;20113;-66
2022/10/16 05:10:27;;;;;;;23.90;16.88;;;12.00;99.90;;;;;;5072871;28;20029;-66
2022/10/16 05:12:53;;;;;;;25.58;17.17;;;12.00;99.90;;;;;;5072407;28;20024;-66
2022/10/16 05:15:19;;;;;;;22.40;15.63;;;12.00;99.90;;;;;;5072878;28;20043;-66
2022/10/16 05:17:45;;;;;;;23.55;16.92;;;12.00;99.90;;;;;;5072579;28;20082;-66
2022/10/16 05:20:11;;;;;;;23.38;15.98;;;12.00;99.90;;;;;;5072816;28;20021;-65
2022/10/16 05:22:36;;;;;;;21.90;15.98;;;12.00;99.90;;;;;;5072814;28;20468;-66
2022/10/16 05:25:02;;;;;;;27.17;15.95;;;12.00;99.90;;;;;;5072908;28;20046;-66
2022/10/16 05:27:28;;;;;;;23.17;16.45;;;12.00;99.90;;;;;;5092296;28;20040;-65
2022/10/16 05:29:54;;;;;;;28.45;18.55;;;12.00;99.90;;;;;;5092510;28;20022;-65
2022/10/16 05:32:19;;;;;;;28.38;18.55;;;12.00;99.90;;;;;;5092868;28;20028;-65
2022/10/16 05:34:45;;;;;;;32.92;20.35;;;12.00;99.90;;;;;;5092523;28;20027;-67
2022/10/16 05:37:12;;;;;;;29.67;18.83;;;12.00;99.90;;;;;;5092860;28;20066;-67
2022/10/16 05:39:38;;;;;;;31.20;19.15;;;12.00;99.90;;;;;;5088981;28;20393;-67
2022/10/16 05:42:04;;;;;;;29.52;18.73;;;12.00;99.90;;;;;;5072108;28;20028;-66
2022/10/16 05:44:30;;;;;;;34.33;21.10;;;12.00;99.90;;;;;;5072574;28;20025;-67
2022/10/16 05:46:56;;;;;;;36.00;21.27;;;12.10;99.90;;;;;;5072068;28;20043;-67
2022/10/16 05:49:21;;;;;;;37.30;22.58;;;12.00;99.90;;;;;;5072236;28;20025;-65
2022/10/16 05:51:47;;;;;;;36.85;22.67;;;12.00;99.90;;;;;;5071890;28;20033;-65
2022/10/16 05:54:13;;;;;;;40.55;24.80;;;12.00;99.90;;;;;;5072556;28;20025;-65
2022/10/16 05:56:38;;;;;;;45.65;25.67;;;12.00;99.90;;;;;;5054153;28;20102;-65
2022/10/16 05:59:05;;;;;;;38.42;24.35;;;12.00;99.90;;;;;;5071814;28;20094;-65
2022/10/16 06:01:31;;;;;;;42.72;25.92;;;12.00;99.90;;;;;;5072370;28;20146;-66
2022/10/16 06:03:57;;;;;;;45.97;27.13;;;12.00;99.90;;;;;;5072030;28;20032;-66
2022/10/16 06:06:26;;;;;;;38.08;26.17;;;12.00;99.90;;;;;;5072123;28;20037;-67
2022/10/16 06:08:52;;;;;;;46.13;28.30;;;12.00;99.90;;;;;;5072023;28;20025;-67
2022/10/16 06:11:21;;;;;;;48.85;27.80;;;12.00;99.90;;;;;;5072798;28;20021;-67
2022/10/16 06:13:51;;;;;;;49.03;28.17;;;12.10;99.90;;;;;;5075383;28;20040;-66
2022/10/16 06:16:16;;;;;;;45.63;26.83;;;12.10;99.90;;;;;;5076193;28;20119;-67
2022/10/16 06:18:42;;;;;;;45.70;29.52;;;12.10;99.90;;;;;;5075668;28;20476;-69
2022/10/16 06:21:16;;;;;;;52.45;28.33;;;12.10;99.90;;;;;;5076051;28;20381;-67
2022/10/16 06:23:43;;;;;;;39.72;26.55;;;12.10;99.90;;;;;;5076073;28;20028;-66
2022/10/16 06:26:11;;;;;;;45.75;27.98;;;12.10;99.90;;;;;;5075911;28;20040;-67
2022/10/16 06:28:37;;;;;;;47.83;27.88;;;12.10;99.90;;;;;;5075762;28;20028;-67
2022/10/16 06:31:04;;;;;;;50.45;29.98;;;12.10;99.90;;;;;;5075245;28;20143;-67
2022/10/16 06:33:31;;;;;;;52.15;30.10;;;12.10;99.90;;;;;;5075620;28;20099;-67
2022/10/16 06:36:05;;;;;;;50.08;30.05;;;12.20;99.90;;;;;;5075269;28;20383;-66
2022/10/16 06:38:31;;;;;;;46.00;29.85;;;12.20;99.90;;;;;;5075751;28;20024;-66
2022/10/16 06:40:58;;;;;;;46.08;29.77;;;12.20;99.90;;;;;;5057283;28;20094;-66
2022/10/16 06:43:23;;;;;;;50.08;28.73;;;12.20;99.90;;;;;;5075343;28;20028;-66
2022/10/16 06:45:56;;;;;;;52.65;32.08;;;12.20;99.90;;;;;;5074762;28;20421;-66
2022/10/16 06:48:23;;;;;;;54.47;30.20;;;12.20;99.90;;;;;;5075810;28;20108;-66
2022/10/16 06:51:19;;;;;;;50.10;29.95;;;12.30;99.90;;;;;;5074863;28;20032;-66
2022/10/16 06:53:51;;;;;;;49.08;30.10;;;12.30;99.90;;;;;;5054667;28;20090;-67
2022/10/16 06:56:25;;;;;;;52.92;29.67;;;12.30;99.90;;;;;;5075494;28;20056;-66
2022/10/16 06:58:51;;;;;;;55.90;31.52;;;12.30;99.90;;;;;;5074854;28;20072;-67
2022/10/16 07:01:19;;;;;;;61.63;31.65;;;12.30;99.90;;;;;;5074959;28;20465;-65
2022/10/16 07:03:46;;;;;;;49.53;30.20;;;12.30;99.90;;;;;;5057212;28;20068;-66
2022/10/16 07:06:15;;;;;;;57.25;30.67;;;12.30;99.90;;;;;;5075153;28;20040;-66
2022/10/16 07:08:42;;;;;;;58.85;33.35;;;12.30;99.90;;;;;;5075166;28;20024;-66
2022/10/16 07:11:13;;;;;;;56.60;34.33;;;12.30;99.90;;;;;;5074914;28;20488;-66
2022/10/16 07:13:41;;;;;;;62.35;33.47;;;12.30;99.90;;;;;;5075153;28;20064;-66
2022/10/16 07:16:09;;;;;;;63.22;33.80;;;12.30;99.90;;;;;;5074107;28;20486;-65
2022/10/16 07:18:36;;;;;;;71.82;36.10;;;12.30;99.90;;;;;;5074552;28;20417;-66
2022/10/16 07:21:07;;;;;;;64.47;37.70;;;12.40;99.90;;;;;;5074353;28;20033;-65
2022/10/16 07:23:33;;;;;;;65.82;34.35;;;12.40;99.90;;;;;;5080264;28;20024;-66
2022/10/16 07:25:58;;;;;;;74.45;36.45;;;12.50;99.90;;;;;;5094264;28;20024;-66
2022/10/16 07:28:24;;;;;;;68.32;35.33;;;12.50;99.90;;;;;;5095027;28;20028;-65
2022/10/16 07:30:50;;;;;;;67.63;36.67;;;12.50;99.90;;;;;;5094498;28;20023;-66
2022/10/16 07:33:16;;;;;;;65.57;34.45;;;12.50;99.90;;;;;;5094935;28;20077;-65
2022/10/16 07:35:52;;;;;;;85.25;40.60;;;12.60;99.90;;;;;;5094541;28;20380;-65
2022/10/16 07:38:18;;;;;;;96.53;40.53;;;12.60;99.90;;;;;;5094784;28;20033;-66
2022/10/16 07:40:43;;;;;;;83.85;40.10;;;12.60;99.90;;;;;;5086791;28;20044;-65
2022/10/16 07:43:09;;;;;;;81.38;38.80;;;12.70;99.90;;;;;;5073827;28;20082;-66
2022/10/16 07:45:35;;;;;;;82.00;39.88;;;12.70;99.90;;;;;;5074072;28;20066;-65
2022/10/16 07:48:00;;;;;;;79.38;40.70;;;12.70;99.90;;;;;;5073843;28;20145;-66
2022/10/16 07:50:26;;;;;;;74.78;39.38;;;12.70;99.90;;;;;;5074348;28;20037;-66
2022/10/16 07:52:52;;;;;;;70.22;38.13;;;12.70;99.90;;;;;;5073587;28;20070;-65
2022/10/16 07:55:18;;;;;;;69.47;37.28;;;12.70;99.90;;;;;;5074309;28;20052;-67
2022/10/16 07:57:43;;;;;;;72.07;38.90;;;12.70;99.90;;;;;;5073978;28;20075;-66
2022/10/16 08:00:13;;;;;;;70.05;38.88;;;12.70;99.90;;;;;;5073653;28;20373;-66
2022/10/16 08:02:42;;;;;;;74.82;38.85;;;12.70;99.90;;;;;;5073881;28;20078;-66
2022/10/16 08:05:08;;;;;;;71.90;39.47;;;12.70;99.90;;;;;;5073318;28;20111;-65
2022/10/16 08:07:34;;;;;;;70.45;38.13;;;12.80;99.90;;;;;;5073865;28;20428;-66
2022/10/16 08:10:00;;;;;;;69.63;37.65;;;12.80;99.90;;;;;;5073154;28;20021;-66
2022/10/16 08:12:26;;;;;;;74.13;38.03;;;12.90;99.90;;;;;;5073692;28;20051;-66
2022/10/16 08:14:51;;;;;;;68.60;37.17;;;12.90;99.90;;;;;;5055559;28;20032;-67
2022/10/16 08:17:17;;;;;;;73.82;38.83;;;12.90;99.90;;;;;;5073788;28;20039;-67
2022/10/16 08:19:49;;;;;;;75.40;39.30;;;13.00;99.90;;;;;;5074034;28;20035;-66
2022/10/16 08:22:14;;;;;;;70.53;36.97;;;13.00;99.90;;;;;;5073263;28;20028;-67
2022/10/16 08:24:40;;;;;;;68.25;37.95;;;13.00;99.90;;;;;;5073614;28;20150;-66
2022/10/16 08:27:06;;;;;;;57.90;34.25;;;13.10;99.90;;;;;;5073147;28;20039;-66
2022/10/16 08:29:32;;;;;;;60.83;34.53;;;13.10;99.90;;;;;;5073749;28;20036;-65
2022/10/16 08:31:58;;;;;;;63.25;34.85;;;13.10;99.90;;;;;;5073281;28;20021;-68
2022/10/16 08:34:24;;;;;;;67.70;35.20;;;13.10;99.90;;;;;;5073133;28;20083;-67
2022/10/16 08:36:49;;;;;;;62.35;35.15;;;13.20;99.90;;;;;;5073322;28;20036;-66
2022/10/16 08:39:16;;;;;;;56.40;32.65;;;13.20;99.90;;;;;;5072930;28;20024;-66
2022/10/16 08:42:20;;;;;;;57.22;32.70;;;13.20;99.90;;;;;;5073250;28;20427;-66
2022/10/16 08:44:59;;;;;;;53.88;32.75;;;13.20;99.90;;;;;;5073095;28;20430;-66
2022/10/16 08:47:30;;;;;;;57.42;33.72;;;13.30;99.90;;;;;;5072907;28;20051;-67
2022/10/16 08:50:00;;;;;;;57.08;32.92;;;13.40;99.90;;;;;;5072650;28;20033;-66
2022/10/16 08:52:31;;;;;;;49.88;31.95;;;13.40;99.90;;;;;;5073578;28;20036;-66
2022/10/16 08:54:57;;;;;;;52.92;31.02;;;13.40;99.90;;;;;;5072672;28;20063;-66
2022/10/16 08:57:26;;;;;;;48.00;29.48;;;13.40;99.90;;;;;;5072761;28;20129;-66
2022/10/16 08:59:54;;;;;;;50.83;28.83;;;13.40;99.90;;;;;;5073023;28;20028;-65
2022/10/16 09:02:37;;;;;;;43.78;28.02;;;13.50;99.90;;;;;;5073013;28;20024;-66
2022/10/16 09:05:31;;;;;;;42.88;27.50;;;13.50;99.90;;;;;;5072389;28;20055;-66
2022/10/16 09:08:18;;;;;;;41.70;26.55;;;13.50;99.90;;;;;;5027477;28;20084;-66
2022/10/16 09:11:05;;;;;;;34.40;25.05;;;13.50;99.90;;;;;;5072968;28;20056;-66
2022/10/16 09:13:45;;;;;;;38.92;25.88;;;13.50;99.90;;;;;;5072966;28;20381;-65
2022/10/16 09:16:16;;;;;;;37.03;25.20;;;13.50;99.90;;;;;;5072294;28;20082;-65
2022/10/16 09:18:45;;;;;;;43.47;28.20;;;13.50;99.90;;;;;;5072599;28;20466;-65
2022/10/16 09:21:25;;;;;;;37.22;25.88;;;13.50;99.90;;;;;;5072357;28;20059;-67
2022/10/16 09:23:51;;;;;;;42.92;26.98;;;13.50;99.90;;;;;;5072672;28;20062;-66
2022/10/16 09:26:19;;;;;;;43.05;27.55;;;13.50;99.90;;;;;;5080507;28;20464;-66
2022/10/16 09:28:45;;;;;;;45.22;27.42;;;13.50;99.90;;;;;;5092844;28;20025;-66
2022/10/16 09:31:22;;;;;;;39.08;26.42;;;13.50;99.90;;;;;;5092341;28;20028;-66
2022/10/16 09:33:55;;;;;;;39.72;25.63;;;13.60;99.90;;;;;;5075890;28;20024;-66
2022/10/16 09:36:23;;;;;;;43.95;28.88;;;13.60;99.90;;;;;;5071912;28;20473;-66
2022/10/16 09:38:49;;;;;;;41.17;27.00;;;13.60;99.90;;;;;;5072850;28;20021;-66
2022/10/16 09:41:22;;;;;;;42.50;27.30;;;13.70;99.90;;;;;;5054153;28;20460;-66
2022/10/16 09:43:49;;;;;;;40.67;27.00;;;13.70;99.90;;;;;;5072332;28;20027;-66
2022/10/16 09:46:31;;;;;;;38.50;25.92;;;13.70;99.90;;;;;;5074354;28;20082;-66
2022/10/16 09:49:26;;;;;;;42.25;27.52;;;13.70;99.90;;;;;;5076290;28;20465;-66
2022/10/16 09:52:12;;;;;;;40.78;27.17;;;13.80;99.90;;;;;;5065132;28;20043;-65
2022/10/16 09:54:48;;;;;;;42.45;27.40;;;13.80;99.90;;;;;;5076622;28;20380;-66
2022/10/16 09:57:14;;;;;;;40.95;27.00;;;13.80;99.90;;;;;;5076362;28;20048;-66
2022/10/16 09:59:53;;;;;;;40.40;26.70;;;13.90;99.90;;;;;;5076437;28;20051;-66
2022/10/16 10:02:35;;;;;;;40.25;25.30;;;14.00;99.90;;;;;;5075838;28;20102;-66
2022/10/16 10:05:01;;;;;;;40.72;27.85;;;14.00;99.90;;;;;;5076042;28;20047;-66
2022/10/16 10:07:35;;;;;;;39.38;26.33;;;14.10;99.90;;;;;;5076222;28;20032;-66
2022/10/16 10:10:03;;;;;;;42.42;28.15;;;14.20;99.90;;;;;;5075966;28;20032;-66
2022/10/16 10:12:36;;;;;;;42.22;27.63;;;14.30;99.90;;;;;;5057794;28;20025;-65
2022/10/16 10:15:11;;;;;;;40.17;27.67;;;14.40;99.90;;;;;;5075812;28;20060;-65
2022/10/16 10:17:55;;;;;;;47.80;27.02;;;14.60;99.90;;;;;;5076123;28;20036;-65
2022/10/16 10:20:34;;;;;;;43.45;28.13;;;14.80;99.90;;;;;;5075680;28;20021;-66
2022/10/16 10:23:01;;;;;;;43.00;27.90;;;14.90;99.90;;;;;;5075890;28;20036;-66
2022/10/16 10:25:46;;;;;;;44.78;28.70;;;15.10;99.90;;;;;;5075471;28;20094;-66
2022/10/16 10:28:27;;;;;;;42.03;26.33;;;15.20;99.90;;;;;;5075031;28;20489;-66
2022/10/16 10:30:53;;;;;;;44.15;27.83;;;15.30;99.90;;;;;;5075854;28;20488;-65
2022/10/16 10:33:56;;;;;;;42.85;28.40;;;15.50;99.90;;;;;;5075338;28;20029;-66
2022/10/16 10:36:39;;;;;;;43.97;26.80;;;15.50;99.90;;;;;;4974072;28;20035;-65
2022/10/16 10:39:08;;;;;;;40.40;27.90;;;15.70;99.90;;;;;;5068179;28;20044;-65
2022/10/16 10:42:01;;;;;;;41.92;27.05;;;15.80;99.90;;;;;;5075202;28;20024;-66
2022/10/16 10:44:54;;;;;;;38.08;26.52;;;15.90;99.90;;;;;;5075351;28;20385;-66
2022/10/16 10:47:26;;;;;;;40.83;27.10;;;16.10;99.90;;;;;;5075208;28;20037;-66
2022/10/16 10:50:19;;;;;;;41.47;27.33;;;16.20;99.90;;;;;;5075362;28;20025;-65
2022/10/16 10:53:06;;;;;;;39.92;26.17;;;16.40;99.90;;;;;;5075089;28;20437;-66
2022/10/16 10:55:32;;;;;;;37.67;24.88;;;16.50;99.90;;;;;;5074955;28;20127;-66
2022/10/16 10:58:12;;;;;;;39.85;25.83;;;16.70;99.90;;;;;;5074568;28;20064;-66
2022/10/16 11:01:10;;;;;;;41.85;26.30;;;16.90;99.90;;;;;;5075015;28;20481;-66
2022/10/16 11:04:08;;;;;;;41.00;27.08;;;17.00;99.90;;;;;;5069949;28;20032;-66
2022/10/16 11:06:40;;;;;;;40.80;26.80;;;17.20;99.90;;;;;;5061432;28;20138;-66
2022/10/16 11:09:15;;;;;;;40.50;27.73;;;17.30;99.90;;;;;;5074759;28;20101;-66
2022/10/16 11:11:49;;;;;;;41.58;27.35;;;17.40;99.90;;;;;;5074765;28;20489;-66
2022/10/16 11:14:18;;;;;;;40.53;27.02;;;17.60;99.90;;;;;;5074653;28;20028;-66
2022/10/16 11:16:44;;;;;;;37.03;24.85;;;17.70;99.90;;;;;;5074943;28;20033;-66
2022/10/16 11:19:35;;;;;;;38.95;27.65;;;17.90;99.90;;;;;;5056701;28;20035;-66
2022/10/16 11:22:03;;;;;;;40.17;26.65;;;18.00;99.90;;;;;;5074964;28;20070;-65
2022/10/16 11:24:54;;;;;;;37.85;25.67;;;18.10;99.90;;;;;;5074285;28;20162;-65
2022/10/16 11:27:27;;;;;;;42.20;27.38;;;18.20;99.90;;;;;;5074257;28;20116;-66
2022/10/16 11:30:08;;;;;;;39.30;25.73;;;18.20;99.90;;;;;;5075069;28;20060;-66
2022/10/16 11:32:59;;;;;;;41.65;27.23;;;18.30;99.90;;;;;;5074588;28;20032;-66
2022/10/16 11:35:34;;;;;;;37.10;27.10;;;18.30;99.90;;;;;;5083673;28;20491;-66
2022/10/16 11:38:03;;;;;;;40.80;26.63;;;18.30;99.90;;;;;;5094611;28;20057;-65
2022/10/16 11:40:36;;;;;;;37.70;26.73;;;18.30;99.90;;;;;;5094146;28;20028;-65
2022/10/16 11:43:08;;;;;;;37.30;26.67;;;18.30;99.90;;;;;;5094712;28;20046;-66
2022/10/16 11:45:49;;;;;;;36.83;25.58;;;18.40;99.90;;;;;;5094395;28;20020;-66
2022/10/16 11:48:19;;;;;;;37.72;26.75;;;18.40;99.90;;;;;;5093947;28;20043;-66
2022/10/16 11:50:56;;;;;;;40.72;27.80;;;18.50;99.90;;;;;;5076539;28;20020;-66
2022/10/16 11:53:42;;;;;;;37.30;25.67;;;18.40;99.90;;;;;;5094391;28;20080;-66
2022/10/16 11:56:12;;;;;;;40.97;27.50;;;18.50;99.90;;;;;;5093500;28;20044;-66
2022/10/16 11:58:41;;;;;;;38.10;26.95;;;18.50;99.90;;;;;;5094333;28;20035;-66
2022/10/16 12:01:15;;;;;;;41.17;27.60;;;18.40;99.90;;;;;;5094357;28;20031;-66
2022/10/16 12:04:09;;;;;;;39.47;26.90;;;18.40;99.90;;;;;;5094500;28;20153;-65
2022/10/16 12:06:43;;;;;;;44.42;28.65;;;18.40;99.90;;;;;;5076347;28;20048;-65
2022/10/16 12:09:18;;;;;;;39.15;27.40;;;18.40;99.90;;;;;;5092630;28;20031;-66
2022/10/16 12:11:44;;;;;;;40.05;28.70;;;18.50;99.90;;;;;;5094230;28;20028;-66
2022/10/16 12:14:12;;;;;;;44.17;29.15;;;18.50;99.90;;;;;;5093870;28;20028;-68
2022/10/16 12:17:21;;;;;;;44.75;30.00;;;18.60;99.90;;;;;;5093952;28;20028;-66
2022/10/16 12:20:12;;;;;;;42.50;28.45;;;18.60;99.90;;;;;;5080316;28;20081;-66
2022/10/16 12:23:22;;;;;;;43.30;29.55;;;18.70;99.90;;;;;;5094475;28;20407;-66
2022/10/16 12:25:55;;;;;;;43.00;29.08;;;18.80;99.90;;;;;;4992640;28;20026;-65
2022/10/16 12:28:26;;;;;;;46.05;30.65;;;18.70;99.90;;;;;;4991793;28;20037;-66
2022/10/16 12:31:06;;;;;;;43.38;30.27;;;18.70;99.90;;;;;;4992031;28;20042;-66
2022/10/16 12:33:34;;;;;;;45.53;31.27;;;18.80;99.90;;;;;;4991463;28;20038;-65
2022/10/16 12:36:03;;;;;;;42.95;30.45;;;18.80;99.90;;;;;;4991792;28;20547;-65
2022/10/16 12:38:45;;;;;;;48.58;32.97;;;18.90;99.90;;;;;;4991285;28;20034;-65
2022/10/16 12:41:12;;;;;;;45.20;31.70;;;18.90;99.90;;;;;;4991570;28;20099;-68
2022/10/16 12:43:42;;;;;;;44.70;30.60;;;18.90;99.90;;;;;;4991874;28;20518;-65
2022/10/16 12:46:10;;;;;;;51.55;31.92;;;18.90;99.90;;;;;;4991558;28;20479;-65
2022/10/16 12:48:38;;;;;;;45.55;32.38;;;19.00;99.90;;;;;;4991524;28;20053;-66